createdAt,value
2023-02-18T00:01:13.475Z,98901.70
2023-02-18T00:05:51.252Z,98891.80
2023-02-18T00:08:19.659Z,98883.83
2023-02-18T00:10:48.468Z,98878.31
2023-02-18T00:13:16.407Z,98868.20
2023-02-18T00:15:44.302Z,98864.41
2023-02-18T00:18:12.790Z,98859.42
2023-02-18T00:20:40.873Z,98861.14
2023-02-18T00:23:09.179Z,98852.34
2023-02-18T00:25:37.379Z,98844.49
2023-02-18T00:28:05.700Z,98831.45
2023-02-18T00:30:34.266Z,98823.70
2023-02-18T00:33:02.555Z,98816.71
2023-02-18T00:35:30.828Z,98805.07
2023-02-18T00:38:01.869Z,98793.08
2023-02-18T00:40:30.016Z,98781.56
2023-02-18T00:42:58.096Z,98774.67
2023-02-18T00:45:26.718Z,98771.83
2023-02-18T00:47:55.511Z,98755.38
2023-02-18T00:50:23.917Z,98746.73
2023-02-18T00:52:52.264Z,98738.49
2023-02-18T00:55:20.631Z,98736.43
2023-02-18T00:57:49.211Z,98720.58
2023-02-18T01:00:18.215Z,98715.61
2023-02-18T01:02:46.352Z,98708.62
2023-02-18T01:05:15.871Z,98702.50
2023-02-18T01:07:43.930Z,98699.76
2023-02-18T01:10:17.231Z,98688.80
2023-02-18T01:12:47.105Z,98678.55
2023-02-18T01:15:15.821Z,98672.01
2023-02-18T01:17:44.853Z,98659.55
2023-02-18T01:20:13.498Z,98646.24
2023-02-18T01:22:43.121Z,98641.52
2023-02-18T01:25:11.453Z,98632.69
2023-02-18T01:27:41.580Z,98625.35
2023-02-18T01:30:12.881Z,98620.70
2023-02-18T01:32:41.507Z,98610.05
2023-02-18T01:35:12.499Z,98600.49
2023-02-18T01:37:40.504Z,98599.71
2023-02-18T01:40:09.199Z,98585.59
2023-02-18T01:42:38.079Z,98582.42
2023-02-18T01:46:03.725Z,98579.03
2023-02-18T01:48:39.580Z,98569.15
2023-02-18T01:51:17.501Z,98558.88
2023-02-18T01:53:56.624Z,98547.09
2023-02-18T01:56:28.796Z,98544.64
2023-02-18T01:58:58.235Z,98539.61
2023-02-18T02:01:26.181Z,98530.25
2023-02-18T02:03:54.561Z,98526.17
2023-02-18T02:06:23.029Z,98521.42
2023-02-18T02:08:58.159Z,98511.83
2023-02-18T02:11:56.992Z,98504.58
2023-02-18T02:14:50.911Z,98503.16
2023-02-18T02:17:48.368Z,98496.56
2023-02-18T02:20:28.374Z,98489.13
2023-02-18T02:23:21.808Z,98474.70
2023-02-18T02:26:51.471Z,98472.61
2023-02-18T02:29:25.815Z,98459.84
2023-02-18T02:32:17.435Z,98452.86
2023-02-18T02:35:03.251Z,98437.59
2023-02-18T02:37:44.661Z,98434.52
2023-02-18T02:40:39.124Z,98434.39
2023-02-18T02:43:28.930Z,98422.53
2023-02-18T02:46:00.237Z,98415.91
2023-02-18T02:49:03.141Z,98415.61
2023-02-18T02:51:44.971Z,98401.89
2023-02-18T02:54:19.585Z,98402.41
2023-02-18T02:56:48.525Z,98395.42
2023-02-18T02:59:24.038Z,98393.88
2023-02-18T03:02:25.180Z,98384.33
2023-02-18T03:05:11.089Z,98374.46
2023-02-18T03:07:51.267Z,98370.08
2023-02-18T03:10:45.443Z,98368.58
2023-02-18T03:13:26.549Z,98360.61
2023-02-18T03:16:25.780Z,98356.45
2023-02-18T03:19:02.538Z,98357.16
2023-02-18T03:21:38.769Z,98353.27
2023-02-18T03:24:16.536Z,98349.37
2023-02-18T03:26:47.616Z,98340.05
2023-02-18T03:29:15.885Z,98333.30
2023-02-18T03:31:45.615Z,98328.98
2023-02-18T03:34:16.786Z,98320.23
2023-02-18T03:36:45.093Z,98317.08
2023-02-18T03:39:15.934Z,98314.36
2023-02-18T03:41:43.958Z,98306.45
2023-02-18T03:44:12.096Z,98309.24
2023-02-18T03:46:45.634Z,98300.97
2023-02-18T03:49:14.406Z,98293.27
2023-02-18T03:51:42.825Z,98284.88
2023-02-18T03:54:14.501Z,98275.98
2023-02-18T03:56:42.795Z,98270.23
2023-02-18T03:59:12.760Z,98263.19
2023-02-18T04:01:42.230Z,98252.38
2023-02-18T04:04:10.213Z,98247.00
2023-02-18T04:06:40.212Z,98245.89
2023-02-18T04:09:09.356Z,98236.13
2023-02-18T04:11:39.157Z,98229.89
2023-02-18T04:14:07.782Z,98225.39
2023-02-18T04:16:37.244Z,98220.17
2023-02-18T04:19:05.479Z,98211.09
2023-02-18T04:21:34.063Z,98209.84
2023-02-18T04:24:03.275Z,98196.61
2023-02-18T04:26:31.306Z,98191.50
2023-02-18T04:29:00.416Z,98189.71
2023-02-18T04:38:42.208Z,98170.80
2023-02-18T04:41:10.400Z,98163.77
2023-02-18T04:43:39.077Z,98160.85
2023-02-18T04:46:07.491Z,98156.09
2023-02-18T04:48:36.797Z,98144.39
2023-02-18T04:51:04.998Z,98143.29
2023-02-18T04:53:33.722Z,98145.85
2023-02-18T04:56:02.997Z,98139.98
2023-02-18T04:58:31.457Z,98125.67
2023-02-18T05:01:01.815Z,98130.71
2023-02-18T05:03:33.979Z,98126.77
2023-02-18T05:06:02.147Z,98123.31
2023-02-18T05:08:30.435Z,98116.39
2023-02-18T05:11:00.667Z,98117.83
2023-02-18T05:13:28.723Z,98109.54
2023-02-18T05:15:56.865Z,98100.04
2023-02-18T05:18:25.135Z,98096.73
2023-02-18T05:20:53.259Z,98084.98
2023-02-18T05:23:21.560Z,98062.98
2023-02-18T05:25:49.509Z,98073.64
2023-02-18T05:28:19.858Z,98069.17
2023-02-18T05:30:48.462Z,98072.05
2023-02-18T05:33:17.504Z,98069.48
2023-02-18T05:35:46.111Z,98066.23
2023-02-18T05:38:14.307Z,98062.02
2023-02-18T05:40:42.621Z,98065.73
2023-02-18T05:43:10.798Z,98058.19
2023-02-18T05:45:38.925Z,98063.59
2023-02-18T05:48:06.948Z,98063.93
2023-02-18T05:50:35.442Z,98054.36
2023-02-18T05:53:03.962Z,98049.71
2023-02-18T05:55:37.790Z,98045.13
2023-02-18T05:58:06.105Z,98039.91
2023-02-18T06:00:34.819Z,98036.94
2023-02-18T06:03:03.598Z,98032.02
2023-02-18T06:05:31.764Z,98023.77
2023-02-18T06:07:59.992Z,98023.02
2023-02-18T06:10:28.653Z,98020.09
2023-02-18T06:12:57.397Z,98024.48
2023-02-18T06:15:25.361Z,98027.66
2023-02-18T06:17:54.118Z,98020.63
2023-02-18T06:20:22.162Z,98012.90
2023-02-18T06:22:50.240Z,98014.13
2023-02-18T06:25:18.210Z,98010.55
2023-02-18T06:27:52.179Z,98006.65
2023-02-18T06:30:21.747Z,98003.99
2023-02-18T06:32:50.612Z,98001.61
2023-02-18T06:35:19.848Z,98006.74
2023-02-18T06:37:48.918Z,98010.27
2023-02-18T06:40:18.548Z,98004.16
2023-02-18T06:42:46.484Z,98003.01
2023-02-18T06:45:16.025Z,98006.01
2023-02-18T06:47:44.726Z,98003.91
2023-02-18T06:50:13.746Z,98004.34
2023-02-18T06:52:41.967Z,98005.30
2023-02-18T06:55:11.113Z,97998.86
2023-02-18T06:57:39.411Z,97998.11
2023-02-18T07:00:08.192Z,97992.92
2023-02-18T07:02:37.633Z,97992.98
2023-02-18T07:05:05.931Z,97996.33
2023-02-18T07:07:34.642Z,97999.38
2023-02-18T07:10:03.744Z,97990.05
2023-02-18T07:12:35.515Z,97996.39
2023-02-18T07:15:03.854Z,97993.29
2023-02-18T07:17:33.160Z,97994.48
2023-02-18T07:20:01.356Z,98003.53
2023-02-18T07:22:30.856Z,98016.96
2023-02-18T07:24:59.245Z,98019.87
2023-02-18T07:27:27.491Z,98028.13
2023-02-18T07:29:55.644Z,98034.19
2023-02-18T07:32:23.835Z,98039.70
2023-02-18T07:34:53.044Z,98040.56
2023-02-18T07:37:21.172Z,98037.80
2023-02-18T07:39:49.102Z,98041.88
2023-02-18T07:42:17.096Z,98038.22
2023-02-18T07:44:45.771Z,98042.16
2023-02-18T07:47:14.941Z,98045.23
2023-02-18T07:49:42.980Z,98048.19
2023-02-18T07:52:11.156Z,98052.20
2023-02-18T07:54:39.252Z,98054.20
2023-02-18T07:57:07.734Z,98045.77
2023-02-18T07:59:36.110Z,98041.66
2023-02-18T08:02:05.727Z,98036.05
2023-02-18T08:04:34.670Z,98022.81
2023-02-18T08:07:02.852Z,98015.39
2023-02-18T08:09:30.827Z,98011.05
2023-02-18T08:11:58.934Z,98006.08
2023-02-18T08:14:27.052Z,98007.40
2023-02-18T08:16:59.165Z,98006.64
2023-02-18T08:19:27.560Z,97999.19
2023-02-18T08:21:55.509Z,98002.02
2023-02-18T08:24:23.440Z,98008.80
2023-02-18T08:27:00.208Z,98002.49
2023-02-18T08:29:29.709Z,98010.95
2023-02-18T08:31:58.438Z,98008.83
2023-02-18T08:34:26.485Z,98015.66
2023-02-18T08:36:54.592Z,98012.93
2023-02-18T08:39:24.501Z,98020.34
2023-02-18T08:41:52.639Z,98023.36
2023-02-18T08:44:21.191Z,98023.70
2023-02-18T08:46:49.622Z,98018.73
2023-02-18T08:49:17.819Z,98027.39
2023-02-18T08:51:45.888Z,98027.92
2023-02-18T08:54:13.945Z,98028.38
2023-02-18T08:56:45.576Z,98031.98
2023-02-18T08:59:13.667Z,98028.35
2023-02-18T09:01:41.752Z,98029.06
2023-02-18T09:04:09.841Z,98027.81
2023-02-18T09:06:38.976Z,98027.48
2023-02-18T09:09:07.335Z,98026.66
2023-02-18T09:11:36.693Z,98028.86
2023-02-18T09:14:05.288Z,98027.32
2023-02-18T09:16:33.355Z,98032.52
2023-02-18T09:19:01.530Z,98028.58
2023-02-18T09:21:29.774Z,98027.58
2023-02-18T09:23:59.550Z,98029.16
2023-02-18T09:26:28.131Z,98022.41
2023-02-18T09:28:58.042Z,98028.90
2023-02-18T09:31:27.154Z,98029.70
2023-02-18T09:33:57.580Z,98024.82
2023-02-18T09:36:26.489Z,98026.48
2023-02-18T09:38:55.168Z,98030.10
2023-02-18T09:41:30.177Z,98028.98
2023-02-18T09:44:03.356Z,98023.84
2023-02-18T09:46:36.566Z,98027.14
2023-02-18T09:49:07.404Z,98035.42
2023-02-18T09:51:36.085Z,98029.29
2023-02-18T09:54:04.277Z,98035.06
2023-02-18T09:56:35.549Z,98029.69
2023-02-18T09:59:06.077Z,98033.64
2023-02-18T10:01:37.514Z,98029.88
2023-02-18T10:04:23.917Z,98029.14
2023-02-18T10:06:53.055Z,98029.45
2023-02-18T10:09:31.966Z,98026.19
2023-02-18T10:12:14.780Z,98025.67
2023-02-18T10:14:44.410Z,98024.77
2023-02-18T10:17:14.291Z,98025.17
2023-02-18T10:19:42.348Z,98027.41
2023-02-18T10:22:14.975Z,98029.59
2023-02-18T10:24:57.472Z,98032.38
2023-02-18T10:27:33.798Z,98029.54
2023-02-18T10:30:24.403Z,98020.93
2023-02-18T10:32:56.454Z,98028.77
2023-02-18T10:35:30.737Z,98024.06
2023-02-18T10:38:17.392Z,98027.64
2023-02-18T10:41:00.134Z,98024.66
2023-02-18T10:43:53.555Z,98026.21
2023-02-18T10:46:59.257Z,98030.38
2023-02-18T10:50:03.404Z,98028.64
2023-02-18T10:52:35.287Z,98025.86
2023-02-18T10:55:09.577Z,98023.99
2023-02-18T10:57:52.786Z,98017.98
2023-02-18T11:00:29.327Z,98019.13
2023-02-18T11:03:17.835Z,98021.17
2023-02-18T11:05:47.210Z,98019.32
2023-02-18T11:08:22.414Z,98021.92
2023-02-18T11:10:51.353Z,98023.46
2023-02-18T11:13:30.643Z,98020.75
2023-02-18T11:16:06.301Z,98017.59
2023-02-18T11:18:39.361Z,98016.56
2023-02-18T11:21:21.881Z,98015.40
2023-02-18T11:23:51.815Z,98017.27
2023-02-18T11:26:33.490Z,98022.17
2023-02-18T11:29:11.929Z,98018.63
2023-02-18T11:31:45.347Z,98021.20
2023-02-18T11:34:19.126Z,98017.23
2023-02-18T11:36:47.677Z,98021.45
2023-02-18T11:39:26.758Z,98024.93
2023-02-18T11:42:02.068Z,98027.73
2023-02-18T11:44:32.588Z,98031.20
2023-02-18T11:47:10.569Z,98025.44
2023-02-18T11:49:38.716Z,98025.63
2023-02-18T11:52:19.742Z,98023.13
2023-02-18T11:55:00.206Z,98020.36
2023-02-18T11:57:28.967Z,98023.14
2023-02-18T11:59:57.398Z,98019.69
2023-02-18T12:02:30.645Z,98018.02
2023-02-18T12:05:03.673Z,98021.34
2023-02-18T12:07:40.032Z,98015.88
2023-02-18T12:10:28.703Z,98015.09
2023-02-18T12:13:19.837Z,98017.54
2023-02-18T12:15:54.603Z,98014.20
2023-02-18T12:18:31.244Z,98014.52
2023-02-18T12:26:49.671Z,98023.40
2023-02-18T12:29:37.172Z,98015.69
2023-02-18T12:32:12.961Z,98018.59
2023-02-18T12:35:02.156Z,98021.99
2023-02-18T12:37:49.664Z,98029.76
2023-02-18T12:40:40.910Z,98032.79
2023-02-18T12:43:37.179Z,98036.52
2023-02-18T12:46:17.093Z,98036.14
2023-02-18T12:49:25.987Z,98044.56
2023-02-18T12:51:57.807Z,98045.51
2023-02-18T12:54:31.637Z,98047.19
2023-02-18T12:57:35.189Z,98051.70
2023-02-18T13:00:30.986Z,98046.79
2023-02-18T13:03:25.072Z,98046.13
2023-02-18T13:05:58.071Z,98054.09
2023-02-18T13:08:48.290Z,98055.95
2023-02-18T13:11:35.366Z,98053.33
2023-02-18T13:14:13.238Z,98055.10
2023-02-18T13:16:43.777Z,98062.84
2023-02-18T13:19:18.023Z,98060.91
2023-02-18T13:21:46.752Z,98055.98
2023-02-18T13:24:22.390Z,98066.69
2023-02-18T13:26:51.045Z,98066.70
2023-02-18T13:29:34.645Z,98073.11
2023-02-18T13:32:21.166Z,98070.48
2023-02-18T13:34:54.661Z,98072.73
2023-02-18T13:37:44.528Z,98073.79
2023-02-18T13:42:38.420Z,98085.95
2023-02-18T13:45:25.107Z,98087.20
2023-02-18T13:47:53.483Z,98097.41
2023-02-18T13:50:25.710Z,98100.18
2023-02-18T13:53:03.352Z,98105.65
2023-02-18T13:55:54.452Z,98111.11
2023-02-18T13:58:33.063Z,98113.42
2023-02-18T14:01:04.116Z,98112.13
2023-02-18T14:03:45.228Z,98110.21
2023-02-18T14:06:34.526Z,98108.59
2023-02-18T14:09:26.352Z,98110.00
2023-02-18T14:11:56.166Z,98115.53
2023-02-18T14:14:25.698Z,98119.55
2023-02-18T14:17:34.535Z,98116.23
2023-02-18T14:20:06.369Z,98119.38
2023-02-18T14:22:44.970Z,98119.95
2023-02-18T14:25:22.867Z,98116.19
2023-02-18T14:27:55.387Z,98116.25
2023-02-18T14:30:23.978Z,98114.64
2023-02-18T14:32:53.061Z,98119.59
2023-02-18T14:35:38.017Z,98120.35
2023-02-18T14:38:24.520Z,98120.27
2023-02-18T14:41:16.210Z,98118.30
2023-02-18T14:43:53.335Z,98118.45
2023-02-18T14:46:43.677Z,98117.77
2023-02-18T14:49:27.924Z,98122.27
2023-02-18T14:51:56.981Z,98118.98
2023-02-18T14:54:25.592Z,98119.29
2023-02-18T14:57:05.602Z,98122.30
2023-02-18T14:59:38.043Z,98123.77
2023-02-18T15:02:35.170Z,98126.77
2023-02-18T15:05:18.856Z,98125.90
2023-02-18T15:08:04.470Z,98126.07
2023-02-18T15:10:48.353Z,98123.94
2023-02-18T15:13:27.148Z,98127.16
2023-02-18T15:15:57.812Z,98123.39
2023-02-18T15:18:28.750Z,98122.92
2023-02-18T15:20:56.804Z,98128.09
2023-02-18T15:23:24.773Z,98124.82
2023-02-18T15:25:53.109Z,98133.16
2023-02-18T15:28:32.522Z,98128.70
2023-02-18T15:31:01.841Z,98133.81
2023-02-18T15:33:29.938Z,98130.36
2023-02-18T15:36:02.445Z,98131.45
2023-02-18T15:38:30.600Z,98133.88
2023-02-18T15:40:59.446Z,98145.30
2023-02-18T15:43:27.501Z,98145.39
2023-02-18T15:45:57.228Z,98146.08
2023-02-18T15:48:45.335Z,98148.52
2023-02-18T15:51:22.635Z,98147.09
2023-02-18T15:53:52.840Z,98147.66
2023-02-18T15:56:44.183Z,98146.38
2023-02-18T15:59:24.795Z,98148.12
2023-02-18T16:02:02.497Z,98153.90
2023-02-18T16:04:32.875Z,98155.26
2023-02-18T16:07:03.159Z,98151.14
2023-02-18T16:09:33.096Z,98146.91
2023-02-18T16:12:06.584Z,98151.66
2023-02-18T16:14:46.398Z,98153.16
2023-02-18T16:17:15.715Z,98152.13
2023-02-18T16:20:16.250Z,98155.73
2023-02-18T16:22:47.889Z,98159.02
2023-02-18T16:25:27.638Z,98167.66
2023-02-18T16:27:58.699Z,98162.57
2023-02-18T16:30:29.035Z,98169.86
2023-02-18T16:32:58.114Z,98173.80
2023-02-18T16:35:30.651Z,98174.98
2023-02-18T16:38:01.505Z,98174.91
2023-02-18T16:40:32.375Z,98178.08
2023-02-18T16:43:02.141Z,98179.34
2023-02-18T16:45:38.773Z,98185.45
2023-02-18T16:48:07.520Z,98182.20
2023-02-18T16:50:35.581Z,98183.09
2023-02-18T16:53:03.511Z,98184.58
2023-02-18T16:55:31.928Z,98184.30
2023-02-18T16:58:01.223Z,98185.02
2023-02-18T17:00:29.295Z,98190.92
2023-02-18T17:02:58.585Z,98189.90
2023-02-18T17:05:28.702Z,98189.31
2023-02-18T17:08:25.441Z,98190.39
2023-02-18T17:10:55.414Z,98191.59
2023-02-18T17:13:28.869Z,98191.69
2023-02-18T17:15:57.880Z,98192.83
2023-02-18T17:18:26.060Z,98197.85
2023-02-18T17:20:54.540Z,98197.72
2023-02-18T17:23:23.520Z,98198.07
2023-02-18T17:25:53.339Z,98196.64
2023-02-18T17:28:23.289Z,98196.47
2023-02-18T17:30:56.543Z,98195.61
2023-02-18T17:33:25.298Z,98196.46
2023-02-18T17:35:53.377Z,98197.46
2023-02-18T17:38:21.674Z,98195.90
2023-02-18T17:40:50.695Z,98198.91
2023-02-18T17:43:18.703Z,98194.34
2023-02-18T17:45:52.300Z,98200.08
2023-02-18T17:48:21.317Z,98196.45
2023-02-18T17:50:49.832Z,98198.52
2023-02-18T17:53:18.194Z,98199.27
2023-02-18T17:55:47.174Z,98203.08
2023-02-18T17:58:15.424Z,98200.66
2023-02-18T18:00:52.384Z,98201.68
2023-02-18T18:03:22.149Z,98203.86
2023-02-18T18:05:52.102Z,98202.88
2023-02-18T18:08:20.603Z,98198.95
2023-02-18T18:10:53.567Z,98201.58
2023-02-18T18:13:28.776Z,98200.02
2023-02-18T18:15:58.230Z,98197.00
2023-02-18T18:18:27.284Z,98198.21
2023-02-18T18:20:59.962Z,98196.42
2023-02-18T18:23:29.474Z,98192.45
2023-02-18T18:25:57.818Z,98195.06
2023-02-18T18:28:26.861Z,98196.11
2023-02-18T18:30:55.697Z,98195.66
2023-02-18T18:33:26.166Z,98192.19
2023-02-18T18:35:55.726Z,98189.82
2023-02-18T18:38:24.527Z,98193.23
2023-02-18T18:40:53.152Z,98197.27
2023-02-18T18:43:26.994Z,98197.95
2023-02-18T18:45:55.556Z,98199.61
2023-02-18T18:48:26.737Z,98199.16
2023-02-18T18:50:55.498Z,98197.20
2023-02-18T18:53:31.145Z,98195.02
2023-02-18T18:56:01.660Z,98192.20
2023-02-18T18:58:29.721Z,98190.70
2023-02-18T19:00:59.398Z,98185.32
2023-02-18T19:03:27.956Z,98190.14
2023-02-18T19:05:56.811Z,98185.90
2023-02-18T19:08:24.982Z,98182.85
2023-02-18T19:10:57.401Z,98182.71
2023-02-18T19:13:30.870Z,98180.77
2023-02-18T19:16:27.315Z,98183.56
2023-02-18T19:21:53.150Z,98183.38
2023-02-18T19:24:21.075Z,98182.10
2023-02-18T19:26:48.983Z,98184.53
2023-02-18T19:29:19.467Z,98182.63
2023-02-18T19:31:47.402Z,98179.98
2023-02-18T19:34:15.562Z,98182.13
2023-02-18T19:37:52.178Z,98178.81
2023-02-18T19:40:22.045Z,98176.87
2023-02-18T19:42:50.560Z,98174.84
2023-02-18T19:45:18.902Z,98177.61
2023-02-18T19:47:47.460Z,98178.30
2023-02-18T19:50:16.397Z,98177.39
2023-02-18T19:52:44.720Z,98176.87
2023-02-18T19:55:13.438Z,98174.33
2023-02-18T19:57:41.447Z,98175.96
2023-02-18T20:00:35.082Z,98176.72
2023-02-18T20:03:03.897Z,98171.61
2023-02-18T20:05:31.876Z,98173.21
2023-02-18T20:08:01.248Z,98171.29
2023-02-18T20:10:29.344Z,98169.76
2023-02-18T20:13:00.669Z,98164.46
2023-02-18T20:15:28.782Z,98168.96
2023-02-18T20:18:01.738Z,98166.85
2023-02-18T20:20:29.845Z,98167.50
2023-02-18T20:22:57.753Z,98169.70
2023-02-18T20:25:27.488Z,98170.73
2023-02-18T20:28:01.306Z,98171.17
2023-02-18T20:30:31.198Z,98166.66
2023-02-18T20:32:59.229Z,98171.41
2023-02-18T20:35:27.267Z,98171.85
2023-02-18T20:37:55.154Z,98176.61
2023-02-18T20:40:23.224Z,98175.54
2023-02-18T20:42:53.412Z,98174.18
2023-02-18T20:45:22.163Z,98177.20
2023-02-18T20:47:50.230Z,98172.78
2023-02-18T20:52:45.280Z,98170.70
2023-02-18T20:55:13.371Z,98172.38
2023-02-18T20:57:42.090Z,98175.17
2023-02-18T21:00:11.012Z,98173.08
2023-02-18T21:02:39.086Z,98169.38
2023-02-18T21:06:03.683Z,98170.55
2023-02-18T21:08:34.428Z,98174.33
2023-02-18T21:11:04.926Z,98170.17
2023-02-18T21:13:33.608Z,98170.65
2023-02-18T21:16:05.857Z,98163.70
2023-02-18T21:18:34.095Z,98162.36
2023-02-18T21:21:03.252Z,98159.73
2023-02-18T21:23:33.384Z,98160.05
2023-02-18T21:26:03.592Z,98159.33
2023-02-18T21:28:31.692Z,98165.08
2023-02-18T21:30:59.899Z,98163.58
2023-02-18T21:33:27.911Z,98164.73
2023-02-18T21:35:56.007Z,98170.48
2023-02-18T21:38:24.398Z,98164.89
2023-02-18T21:40:52.842Z,98164.79
2023-02-18T21:43:21.100Z,98164.15
2023-02-18T21:45:49.090Z,98167.52
2023-02-18T21:48:36.266Z,98172.23
2023-02-18T21:51:04.501Z,98181.03
2023-02-18T21:53:32.791Z,98177.94
2023-02-18T21:56:11.134Z,98188.15
2023-02-18T22:01:20.698Z,98189.42
2023-02-18T22:03:48.815Z,98191.77
2023-02-18T22:07:08.926Z,98193.13
2023-02-18T22:09:39.044Z,98199.13
2023-02-18T22:12:07.754Z,98192.79
2023-02-18T22:14:36.436Z,98189.66
2023-02-18T22:17:05.357Z,98193.63
2023-02-18T22:19:34.173Z,98196.52
2023-02-18T22:22:05.157Z,98198.42
2023-02-18T22:24:35.131Z,98199.75
2023-02-18T22:27:03.258Z,98198.08
2023-02-18T22:29:31.467Z,98200.64
2023-02-18T22:31:59.857Z,98204.42
2023-02-18T22:34:28.462Z,98206.31
2023-02-18T22:36:56.348Z,98202.66
2023-02-18T22:39:24.497Z,98201.73
2023-02-18T22:41:55.647Z,98195.77
2023-02-18T22:44:24.505Z,98203.45
2023-02-18T22:46:55.054Z,98204.09
2023-02-18T22:49:23.336Z,98207.06
2023-02-18T22:51:52.743Z,98205.65
2023-02-18T22:54:20.738Z,98205.58
2023-02-18T22:56:48.716Z,98206.55
2023-02-18T22:59:19.653Z,98212.08
2023-02-18T23:01:53.015Z,98210.37
2023-02-18T23:04:21.448Z,98218.35
2023-02-18T23:06:49.883Z,98215.91
2023-02-18T23:09:20.499Z,98212.10
2023-02-18T23:11:50.046Z,98214.07
2023-02-18T23:14:20.056Z,98222.84
2023-02-18T23:17:12.752Z,98210.93
2023-02-18T23:19:45.207Z,98214.64
2023-02-18T23:22:14.689Z,98221.33
2023-02-18T23:24:44.059Z,98216.92
2023-02-18T23:27:13.382Z,98211.67
2023-02-18T23:29:41.774Z,98213.78
2023-02-18T23:32:09.877Z,98218.83
2023-02-18T23:34:38.869Z,98216.97
2023-02-18T23:37:09.867Z,98220.67
2023-02-18T23:39:39.910Z,98221.75
2023-02-18T23:42:10.574Z,98224.45
2023-02-18T23:44:40.512Z,98226.05
2023-02-18T23:47:08.521Z,98223.42
2023-02-18T23:49:37.523Z,98230.92
2023-02-18T23:52:06.490Z,98231.98
2023-02-18T23:54:34.997Z,98229.50
2023-02-18T23:57:03.056Z,98226.58
2023-02-18T23:59:32.740Z,98231.26
